sensor_id;sensor_type;location;lat;lon;timestamp;temperature;humidity
36690;DHT22;22676;51.120;3.702;2023-10-19T00:01:10;24.20;53.50
36690;DHT22;22676;51.120;3.702;2023-10-19T00:03:37;24.20;53.60
36690;DHT22;22676;51.120;3.702;2023-10-19T00:06:03;24.20;53.90
36690;DHT22;22676;51.120;3.702;2023-10-19T00:08:30;24.10;53.90
36690;DHT22;22676;51.120;3.702;2023-10-19T00:11:07;24.10;54.10
36690;DHT22;22676;51.120;3.702;2023-10-19T00:13:38;24.00;54.20
36690;DHT22;22676;51.120;3.702;2023-10-19T00:16:05;24.00;54.40
36690;DHT22;22676;51.120;3.702;2023-10-19T00:18:46;24.00;54.30
36690;DHT22;22676;51.120;3.702;2023-10-19T00:21:13;23.90;54.30
36690;DHT22;22676;51.120;3.702;2023-10-19T00:23:46;23.80;54.40
36690;DHT22;22676;51.120;3.702;2023-10-19T00:26:16;23.80;54.60
36690;DHT22;22676;51.120;3.702;2023-10-19T00:28:51;23.80;54.70
36690;DHT22;22676;51.120;3.702;2023-10-19T00:31:21;23.80;54.70
36690;DHT22;22676;51.120;3.702;2023-10-19T00:33:48;23.70;54.80
36690;DHT22;22676;51.120;3.702;2023-10-19T00:36:17;23.70;54.90
36690;DHT22;22676;51.120;3.702;2023-10-19T00:38:46;23.70;55.00
36690;DHT22;22676;51.120;3.702;2023-10-19T00:41:22;23.70;55.10
36690;DHT22;22676;51.120;3.702;2023-10-19T00:44:00;23.70;55.10
36690;DHT22;22676;51.120;3.702;2023-10-19T00:46:36;23.70;55.20
36690;DHT22;22676;51.120;3.702;2023-10-19T00:49:11;23.70;55.20
36690;DHT22;22676;51.120;3.702;2023-10-19T00:51:46;23.70;55.20
36690;DHT22;22676;51.120;3.702;2023-10-19T00:54:30;23.70;55.20
36690;DHT22;22676;51.120;3.702;2023-10-19T00:57:08;23.60;55.20
36690;DHT22;22676;51.120;3.702;2023-10-19T00:59:36;23.60;55.20
36690;DHT22;22676;51.120;3.702;2023-10-19T01:02:12;23.60;55.20
36690;DHT22;22676;51.120;3.702;2023-10-19T01:04:55;23.60;55.20
36690;DHT22;22676;51.120;3.702;2023-10-19T01:07:26;23.60;55.40
36690;DHT22;22676;51.120;3.702;2023-10-19T01:09:53;23.60;55.30
36690;DHT22;22676;51.120;3.702;2023-10-19T01:12:23;23.60;55.20
36690;DHT22;22676;51.120;3.702;2023-10-19T01:15:17;23.60;55.30
36690;DHT22;22676;51.120;3.702;2023-10-19T01:17:45;23.60;55.20
36690;DHT22;22676;51.120;3.702;2023-10-19T01:20:15;23.60;55.10
36690;DHT22;22676;51.120;3.702;2023-10-19T01:23:01;23.60;55.20
36690;DHT22;22676;51.120;3.702;2023-10-19T01:25:54;23.60;55.20
36690;DHT22;22676;51.120;3.702;2023-10-19T01:28:31;23.60;55.30
36690;DHT22;22676;51.120;3.702;2023-10-19T01:31:20;23.60;55.30
36690;DHT22;22676;51.120;3.702;2023-10-19T01:33:59;23.60;55.20
36690;DHT22;22676;51.120;3.702;2023-10-19T01:36:27;23.60;55.30
36690;DHT22;22676;51.120;3.702;2023-10-19T01:38:54;23.60;55.30
36690;DHT22;22676;51.120;3.702;2023-10-19T01:41:22;23.60;55.30
36690;DHT22;22676;51.120;3.702;2023-10-19T01:43:49;23.60;55.30
36690;DHT22;22676;51.120;3.702;2023-10-19T01:46:17;23.60;55.30
36690;DHT22;22676;51.120;3.702;2023-10-19T01:48:57;23.60;55.20
36690;DHT22;22676;51.120;3.702;2023-10-19T01:51:24;23.60;55.30
36690;DHT22;22676;51.120;3.702;2023-10-19T01:53:56;23.50;55.20
36690;DHT22;22676;51.120;3.702;2023-10-19T01:56:23;23.60;55.30
36690;DHT22;22676;51.120;3.702;2023-10-19T01:58:50;23.60;55.40
36690;DHT22;22676;51.120;3.702;2023-10-19T02:01:20;23.60;55.30
36690;DHT22;22676;51.120;3.702;2023-10-19T02:03:49;23.60;55.30
36690;DHT22;22676;51.120;3.702;2023-10-19T02:06:29;23.60;55.20
36690;DHT22;22676;51.120;3.702;2023-10-19T02:09:03;23.60;55.30
36690;DHT22;22676;51.120;3.702;2023-10-19T02:11:35;23.60;55.30
36690;DHT22;22676;51.120;3.702;2023-10-19T02:14:07;23.50;55.20
36690;DHT22;22676;51.120;3.702;2023-10-19T02:16:40;23.60;55.20
36690;DHT22;22676;51.120;3.702;2023-10-19T02:19:06;23.60;55.10
36690;DHT22;22676;51.120;3.702;2023-10-19T02:21:32;23.50;55.00
36690;DHT22;22676;51.120;3.702;2023-10-19T02:24:03;23.50;55.10
36690;DHT22;22676;51.120;3.702;2023-10-19T02:26:30;23.50;55.10
36690;DHT22;22676;51.120;3.702;2023-10-19T02:28:57;23.50;55.10
36690;DHT22;22676;51.120;3.702;2023-10-19T02:31:24;23.50;55.10
36690;DHT22;22676;51.120;3.702;2023-10-19T02:33:54;23.50;55.10
36690;DHT22;22676;51.120;3.702;2023-10-19T02:36:26;23.50;55.60
36690;DHT22;22676;51.120;3.702;2023-10-19T02:39:02;23.50;55.10
36690;DHT22;22676;51.120;3.702;2023-10-19T02:41:38;23.50;55.10
36690;DHT22;22676;51.120;3.702;2023-10-19T02:44:07;23.50;55.20
36690;DHT22;22676;51.120;3.702;2023-10-19T02:46:35;23.50;55.20
36690;DHT22;22676;51.120;3.702;2023-10-19T02:49:05;23.50;55.80
36690;DHT22;22676;51.120;3.702;2023-10-19T02:51:35;23.50;55.20
36690;DHT22;22676;51.120;3.702;2023-10-19T02:54:02;23.50;55.20
36690;DHT22;22676;51.120;3.702;2023-10-19T02:56:28;23.50;55.30
36690;DHT22;22676;51.120;3.702;2023-10-19T02:58:57;23.50;55.90
36690;DHT22;22676;51.120;3.702;2023-10-19T03:01:30;23.40;55.40
36690;DHT22;22676;51.120;3.702;2023-10-19T03:04:03;23.40;55.40
36690;DHT22;22676;51.120;3.702;2023-10-19T03:06:31;23.40;55.50
36690;DHT22;22676;51.120;3.702;2023-10-19T03:08:58;23.40;55.50
36690;DHT22;22676;51.120;3.702;2023-10-19T03:11:30;23.40;55.50
36690;DHT22;22676;51.120;3.702;2023-10-19T03:13:58;23.40;55.60
36690;DHT22;22676;51.120;3.702;2023-10-19T03:16:23;23.30;55.40
36690;DHT22;22676;51.120;3.702;2023-10-19T03:18:50;23.40;55.30
36690;DHT22;22676;51.120;3.702;2023-10-19T03:21:19;23.40;55.30
36690;DHT22;22676;51.120;3.702;2023-10-19T03:23:52;23.40;55.40
36690;DHT22;22676;51.120;3.702;2023-10-19T03:26:18;23.40;55.40
36690;DHT22;22676;51.120;3.702;2023-10-19T03:28:56;23.30;55.30
36690;DHT22;22676;51.120;3.702;2023-10-19T03:31:26;23.30;55.30
36690;DHT22;22676;51.120;3.702;2023-10-19T03:33:53;23.30;55.20
36690;DHT22;22676;51.120;3.702;2023-10-19T03:36:25;23.40;55.30
36690;DHT22;22676;51.120;3.702;2023-10-19T03:38:52;23.30;55.20
36690;DHT22;22676;51.120;3.702;2023-10-19T03:41:19;23.40;55.30
36690;DHT22;22676;51.120;3.702;2023-10-19T03:43:55;23.40;55.20
36690;DHT22;22676;51.120;3.702;2023-10-19T03:46:22;23.40;55.10
36690;DHT22;22676;51.120;3.702;2023-10-19T03:49:00;23.40;55.10
36690;DHT22;22676;51.120;3.702;2023-10-19T03:51:39;23.40;55.10
36690;DHT22;22676;51.120;3.702;2023-10-19T03:54:24;23.40;55.10
36690;DHT22;22676;51.120;3.702;2023-10-19T03:56:51;23.40;55.00
36690;DHT22;22676;51.120;3.702;2023-10-19T03:59:18;23.50;55.00
36690;DHT22;22676;51.120;3.702;2023-10-19T04:01:44;23.50;55.00
36690;DHT22;22676;51.120;3.702;2023-10-19T04:04:10;23.50;55.10
36690;DHT22;22676;51.120;3.702;2023-10-19T04:06:36;23.50;55.00
36690;DHT22;22676;51.120;3.702;2023-10-19T04:09:03;23.50;55.00
36690;DHT22;22676;51.120;3.702;2023-10-19T04:11:32;23.50;54.90
36690;DHT22;22676;51.120;3.702;2023-10-19T04:14:10;23.50;54.90
36690;DHT22;22676;51.120;3.702;2023-10-19T04:16:36;23.50;54.90
36690;DHT22;22676;51.120;3.702;2023-10-19T04:19:02;23.50;54.90
36690;DHT22;22676;51.120;3.702;2023-10-19T04:21:30;23.40;54.70
36690;DHT22;22676;51.120;3.702;2023-10-19T04:23:56;23.50;54.80
36690;DHT22;22676;51.120;3.702;2023-10-19T04:26:22;23.40;54.70
36690;DHT22;22676;51.120;3.702;2023-10-19T04:28:50;23.50;54.70
36690;DHT22;22676;51.120;3.702;2023-10-19T04:31:17;23.50;54.70
36690;DHT22;22676;51.120;3.702;2023-10-19T04:33:44;23.40;54.60
36690;DHT22;22676;51.120;3.702;2023-10-19T04:36:14;23.50;54.90
36690;DHT22;22676;51.120;3.702;2023-10-19T04:38:40;23.50;54.60
36690;DHT22;22676;51.120;3.702;2023-10-19T04:41:07;23.50;54.50
36690;DHT22;22676;51.120;3.702;2023-10-19T04:43:35;23.50;54.50
36690;DHT22;22676;51.120;3.702;2023-10-19T04:46:06;23.50;54.50
36690;DHT22;22676;51.120;3.702;2023-10-19T04:48:35;23.50;54.50
36690;DHT22;22676;51.120;3.702;2023-10-19T04:51:01;23.60;54.60
36690;DHT22;22676;51.120;3.702;2023-10-19T04:53:30;23.60;54.70
36690;DHT22;22676;51.120;3.702;2023-10-19T04:55:56;23.50;54.70
36690;DHT22;22676;51.120;3.702;2023-10-19T04:58:22;23.50;54.70
36690;DHT22;22676;51.120;3.702;2023-10-19T05:00:47;23.50;54.50
36690;DHT22;22676;51.120;3.702;2023-10-19T05:03:14;23.60;54.70
36690;DHT22;22676;51.120;3.702;2023-10-19T05:05:44;23.60;54.60
36690;DHT22;22676;51.120;3.702;2023-10-19T05:08:10;23.60;54.60
36690;DHT22;22676;51.120;3.702;2023-10-19T05:10:36;23.60;54.50
36690;DHT22;22676;51.120;3.702;2023-10-19T05:13:02;23.60;54.50
36690;DHT22;22676;51.120;3.702;2023-10-19T05:15:29;23.60;54.40
36690;DHT22;22676;51.120;3.702;2023-10-19T05:17:55;23.60;54.50
36690;DHT22;22676;51.120;3.702;2023-10-19T05:20:21;23.60;54.40
36690;DHT22;22676;51.120;3.702;2023-10-19T05:22:47;23.50;54.40
36690;DHT22;22676;51.120;3.702;2023-10-19T05:25:13;23.50;54.40
36690;DHT22;22676;51.120;3.702;2023-10-19T05:27:39;23.50;54.30
36690;DHT22;22676;51.120;3.702;2023-10-19T05:30:05;23.60;54.50
36690;DHT22;22676;51.120;3.702;2023-10-19T05:32:35;23.60;54.50
36690;DHT22;22676;51.120;3.702;2023-10-19T05:35:01;23.60;54.50
36690;DHT22;22676;51.120;3.702;2023-10-19T05:37:30;23.60;54.50
36690;DHT22;22676;51.120;3.702;2023-10-19T05:39:56;23.60;54.50
36690;DHT22;22676;51.120;3.702;2023-10-19T05:42:21;23.60;54.50
36690;DHT22;22676;51.120;3.702;2023-10-19T05:44:47;23.60;54.50
36690;DHT22;22676;51.120;3.702;2023-10-19T05:47:13;23.60;54.60
36690;DHT22;22676;51.120;3.702;2023-10-19T05:49:39;23.70;54.60
36690;DHT22;22676;51.120;3.702;2023-10-19T05:52:04;23.60;54.50
36690;DHT22;22676;51.120;3.702;2023-10-19T05:54:30;23.60;54.50
36690;DHT22;22676;51.120;3.702;2023-10-19T05:56:56;23.60;54.60
36690;DHT22;22676;51.120;3.702;2023-10-19T05:59:22;23.60;54.40
36690;DHT22;22676;51.120;3.702;2023-10-19T06:01:52;23.60;54.40
36690;DHT22;22676;51.120;3.702;2023-10-19T06:04:18;23.60;54.40
36690;DHT22;22676;51.120;3.702;2023-10-19T06:06:43;23.50;54.40
36690;DHT22;22676;51.120;3.702;2023-10-19T06:09:09;23.50;54.50
36690;DHT22;22676;51.120;3.702;2023-10-19T06:11:35;23.50;54.40
36690;DHT22;22676;51.120;3.702;2023-10-19T06:14:04;23.50;54.40
36690;DHT22;22676;51.120;3.702;2023-10-19T06:16:33;23.50;54.40
36690;DHT22;22676;51.120;3.702;2023-10-19T06:18:59;23.50;54.40
36690;DHT22;22676;51.120;3.702;2023-10-19T06:21:25;23.50;54.40
36690;DHT22;22676;51.120;3.702;2023-10-19T06:23:51;23.50;54.40
36690;DHT22;22676;51.120;3.702;2023-10-19T06:26:18;23.50;54.40
36690;DHT22;22676;51.120;3.702;2023-10-19T06:28:44;23.50;54.40
36690;DHT22;22676;51.120;3.702;2023-10-19T06:31:10;23.50;54.60
36690;DHT22;22676;51.120;3.702;2023-10-19T06:33:36;23.50;54.50
36690;DHT22;22676;51.120;3.702;2023-10-19T06:36:07;23.60;54.50
36690;DHT22;22676;51.120;3.702;2023-10-19T06:38:33;23.60;54.50
36690;DHT22;22676;51.120;3.702;2023-10-19T06:41:10;23.50;54.30
36690;DHT22;22676;51.120;3.702;2023-10-19T06:43:38;23.50;54.40
36690;DHT22;22676;51.120;3.702;2023-10-19T06:46:03;23.50;54.40
36690;DHT22;22676;51.120;3.702;2023-10-19T06:48:29;23.50;54.40
36690;DHT22;22676;51.120;3.702;2023-10-19T06:50:56;23.50;54.40
36690;DHT22;22676;51.120;3.702;2023-10-19T06:53:22;23.50;54.40
36690;DHT22;22676;51.120;3.702;2023-10-19T06:55:47;23.60;54.40
36690;DHT22;22676;51.120;3.702;2023-10-19T06:58:13;23.50;54.40
36690;DHT22;22676;51.120;3.702;2023-10-19T07:00:40;23.50;54.50
36690;DHT22;22676;51.120;3.702;2023-10-19T07:03:10;23.50;54.50
36690;DHT22;22676;51.120;3.702;2023-10-19T07:05:35;23.50;54.50
36690;DHT22;22676;51.120;3.702;2023-10-19T07:08:04;23.50;54.40
36690;DHT22;22676;51.120;3.702;2023-10-19T07:10:32;23.50;54.30
36690;DHT22;22676;51.120;3.702;2023-10-19T07:13:00;23.50;54.30
36690;DHT22;22676;51.120;3.702;2023-10-19T07:15:25;23.50;54.30
36690;DHT22;22676;51.120;3.702;2023-10-19T07:17:52;23.50;54.30
36690;DHT22;22676;51.120;3.702;2023-10-19T07:20:20;23.60;54.30
36690;DHT22;22676;51.120;3.702;2023-10-19T07:22:59;23.60;54.30
36690;DHT22;22676;51.120;3.702;2023-10-19T07:25:44;23.50;54.30
36690;DHT22;22676;51.120;3.702;2023-10-19T07:28:11;23.50;54.30
36690;DHT22;22676;51.120;3.702;2023-10-19T07:30:38;23.50;54.30
36690;DHT22;22676;51.120;3.702;2023-10-19T07:33:04;23.50;54.20
36690;DHT22;22676;51.120;3.702;2023-10-19T07:35:34;23.60;54.30
36690;DHT22;22676;51.120;3.702;2023-10-19T07:38:01;23.60;54.30
36690;DHT22;22676;51.120;3.702;2023-10-19T07:40:27;23.50;54.20
36690;DHT22;22676;51.120;3.702;2023-10-19T07:42:53;23.60;54.30
36690;DHT22;22676;51.120;3.702;2023-10-19T07:45:20;23.50;54.20
36690;DHT22;22676;51.120;3.702;2023-10-19T07:47:47;23.50;54.30
36690;DHT22;22676;51.120;3.702;2023-10-19T07:50:13;23.50;54.30
36690;DHT22;22676;51.120;3.702;2023-10-19T07:52:43;23.50;54.30
36690;DHT22;22676;51.120;3.702;2023-10-19T07:55:09;23.50;54.30
36690;DHT22;22676;51.120;3.702;2023-10-19T07:57:35;23.50;54.30
36690;DHT22;22676;51.120;3.702;2023-10-19T08:00:02;23.50;54.40
36690;DHT22;22676;51.120;3.702;2023-10-19T08:02:29;23.50;54.50
36690;DHT22;22676;51.120;3.702;2023-10-19T08:04:55;23.50;54.30
36690;DHT22;22676;51.120;3.702;2023-10-19T08:07:21;23.50;54.30
36690;DHT22;22676;51.120;3.702;2023-10-19T08:09:47;23.50;54.30
36690;DHT22;22676;51.120;3.702;2023-10-19T08:12:14;23.50;54.20
36690;DHT22;22676;51.120;3.702;2023-10-19T08:14:40;23.50;54.20
36690;DHT22;22676;51.120;3.702;2023-10-19T08:17:05;23.60;54.30
36690;DHT22;22676;51.120;3.702;2023-10-19T08:19:34;23.50;54.20
36690;DHT22;22676;51.120;3.702;2023-10-19T08:22:01;23.50;54.10
36690;DHT22;22676;51.120;3.702;2023-10-19T08:24:27;23.60;54.20
36690;DHT22;22676;51.120;3.702;2023-10-19T08:26:54;23.60;54.20
36690;DHT22;22676;51.120;3.702;2023-10-19T08:29:20;23.60;54.20
36690;DHT22;22676;51.120;3.702;2023-10-19T08:31:46;23.60;54.20
36690;DHT22;22676;51.120;3.702;2023-10-19T08:34:12;23.60;54.20
36690;DHT22;22676;51.120;3.702;2023-10-19T08:36:39;23.60;54.10
36690;DHT22;22676;51.120;3.702;2023-10-19T08:39:09;23.60;54.10
36690;DHT22;22676;51.120;3.702;2023-10-19T08:41:37;23.60;54.10
36690;DHT22;22676;51.120;3.702;2023-10-19T08:44:05;23.60;54.10
36690;DHT22;22676;51.120;3.702;2023-10-19T08:46:41;23.60;54.10
36690;DHT22;22676;51.120;3.702;2023-10-19T08:49:13;23.60;54.00
36690;DHT22;22676;51.120;3.702;2023-10-19T08:51:43;23.60;54.00
36690;DHT22;22676;51.120;3.702;2023-10-19T08:54:13;23.60;53.90
36690;DHT22;22676;51.120;3.702;2023-10-19T08:56:40;23.60;53.90
36690;DHT22;22676;51.120;3.702;2023-10-19T08:59:10;23.60;54.40
36690;DHT22;22676;51.120;3.702;2023-10-19T09:01:41;23.60;54.20
36690;DHT22;22676;51.120;3.702;2023-10-19T09:04:10;23.60;54.20
36690;DHT22;22676;51.120;3.702;2023-10-19T09:06:39;23.60;54.10
36690;DHT22;22676;51.120;3.702;2023-10-19T09:09:09;23.60;54.00
36690;DHT22;22676;51.120;3.702;2023-10-19T09:11:42;23.60;54.00
36690;DHT22;22676;51.120;3.702;2023-10-19T09:14:08;23.60;53.90
36690;DHT22;22676;51.120;3.702;2023-10-19T09:16:34;23.60;53.90
36690;DHT22;22676;51.120;3.702;2023-10-19T09:19:02;23.60;53.90
36690;DHT22;22676;51.120;3.702;2023-10-19T09:21:28;23.60;54.00
36690;DHT22;22676;51.120;3.702;2023-10-19T09:23:55;23.60;53.90
36690;DHT22;22676;51.120;3.702;2023-10-19T09:26:22;23.60;53.90
36690;DHT22;22676;51.120;3.702;2023-10-19T09:28:49;23.60;53.90
36690;DHT22;22676;51.120;3.702;2023-10-19T09:31:16;23.60;53.90
36690;DHT22;22676;51.120;3.702;2023-10-19T09:33:43;23.60;53.90
36690;DHT22;22676;51.120;3.702;2023-10-19T09:36:13;23.60;53.90
36690;DHT22;22676;51.120;3.702;2023-10-19T09:38:49;23.60;53.90
36690;DHT22;22676;51.120;3.702;2023-10-19T09:41:19;23.70;54.00
36690;DHT22;22676;51.120;3.702;2023-10-19T09:43:50;23.60;53.90
36690;DHT22;22676;51.120;3.702;2023-10-19T09:46:29;23.60;53.90
36690;DHT22;22676;51.120;3.702;2023-10-19T09:48:57;23.60;53.90
36690;DHT22;22676;51.120;3.702;2023-10-19T09:51:23;23.70;54.00
36690;DHT22;22676;51.120;3.702;2023-10-19T09:56:58;23.70;53.90
36690;DHT22;22676;51.120;3.702;2023-10-19T09:59:37;23.60;54.10
36690;DHT22;22676;51.120;3.702;2023-10-19T10:02:14;23.60;54.30
36690;DHT22;22676;51.120;3.702;2023-10-19T10:04:41;23.60;54.20
36690;DHT22;22676;51.120;3.702;2023-10-19T10:07:08;23.60;54.00
36690;DHT22;22676;51.120;3.702;2023-10-19T10:09:44;23.60;54.00
36690;DHT22;22676;51.120;3.702;2023-10-19T10:12:20;23.60;53.90
36690;DHT22;22676;51.120;3.702;2023-10-19T10:15:05;23.70;54.00
36690;DHT22;22676;51.120;3.702;2023-10-19T10:17:34;23.70;53.90
36690;DHT22;22676;51.120;3.702;2023-10-19T10:22:43;23.70;53.90
36690;DHT22;22676;51.120;3.702;2023-10-19T10:25:25;23.60;53.80
36690;DHT22;22676;51.120;3.702;2023-10-19T10:27:53;23.70;53.80
36690;DHT22;22676;51.120;3.702;2023-10-19T10:30:18;23.70;53.80
36690;DHT22;22676;51.120;3.702;2023-10-19T10:32:52;23.70;53.90
36690;DHT22;22676;51.120;3.702;2023-10-19T10:38:03;23.70;53.80
36690;DHT22;22676;51.120;3.702;2023-10-19T10:40:31;23.70;53.90
36690;DHT22;22676;51.120;3.702;2023-10-19T10:43:07;23.70;54.40
36690;DHT22;22676;51.120;3.702;2023-10-19T10:45:32;23.70;53.90
36690;DHT22;22676;51.120;3.702;2023-10-19T10:47:58;23.70;53.90
36690;DHT22;22676;51.120;3.702;2023-10-19T10:50:26;23.70;53.90
36690;DHT22;22676;51.120;3.702;2023-10-19T10:52:54;23.70;54.40
36690;DHT22;22676;51.120;3.702;2023-10-19T10:55:23;23.70;53.90
36690;DHT22;22676;51.120;3.702;2023-10-19T10:57:50;23.70;54.10
36690;DHT22;22676;51.120;3.702;2023-10-19T11:00:16;23.60;54.40
36690;DHT22;22676;51.120;3.702;2023-10-19T11:02:47;23.60;54.50
36690;DHT22;22676;51.120;3.702;2023-10-19T11:05:25;23.60;54.20
36690;DHT22;22676;51.120;3.702;2023-10-19T11:10:29;23.70;54.10
36690;DHT22;22676;51.120;3.702;2023-10-19T11:13:09;23.60;54.00
36690;DHT22;22676;51.120;3.702;2023-10-19T11:15:35;23.70;54.00
36690;DHT22;22676;51.120;3.702;2023-10-19T11:18:03;23.60;54.00
36690;DHT22;22676;51.120;3.702;2023-10-19T11:20:29;23.70;54.00
36690;DHT22;22676;51.120;3.702;2023-10-19T11:22:56;23.70;54.00
36690;DHT22;22676;51.120;3.702;2023-10-19T11:25:27;23.70;54.00
36690;DHT22;22676;51.120;3.702;2023-10-19T11:27:54;23.70;53.90
36690;DHT22;22676;51.120;3.702;2023-10-19T11:30:30;23.70;53.80
36690;DHT22;22676;51.120;3.702;2023-10-19T11:32:59;23.70;53.80
36690;DHT22;22676;51.120;3.702;2023-10-19T11:35:28;23.70;53.80
36690;DHT22;22676;51.120;3.702;2023-10-19T11:37:57;23.80;53.90
36690;DHT22;22676;51.120;3.702;2023-10-19T11:40:24;23.80;53.90
36690;DHT22;22676;51.120;3.702;2023-10-19T11:42:52;23.80;53.80
36690;DHT22;22676;51.120;3.702;2023-10-19T11:45:18;23.80;53.80
36690;DHT22;22676;51.120;3.702;2023-10-19T11:47:44;23.80;53.80
36690;DHT22;22676;51.120;3.702;2023-10-19T11:50:11;23.80;53.80
36690;DHT22;22676;51.120;3.702;2023-10-19T11:52:44;23.80;53.80
36690;DHT22;22676;51.120;3.702;2023-10-19T11:55:14;23.80;53.80
36690;DHT22;22676;51.120;3.702;2023-10-19T11:57:40;23.80;54.00
36690;DHT22;22676;51.120;3.702;2023-10-19T12:00:10;23.70;55.20
36690;DHT22;22676;51.120;3.702;2023-10-19T12:02:39;23.70;54.70
36690;DHT22;22676;51.120;3.702;2023-10-19T12:05:07;23.70;54.20
36690;DHT22;22676;51.120;3.702;2023-10-19T12:07:39;23.70;54.20
36690;DHT22;22676;51.120;3.702;2023-10-19T12:10:09;23.80;54.10
36690;DHT22;22676;51.120;3.702;2023-10-19T12:12:36;23.80;54.10
36690;DHT22;22676;51.120;3.702;2023-10-19T12:15:03;23.80;54.00
36690;DHT22;22676;51.120;3.702;2023-10-19T12:17:31;23.80;53.90
36690;DHT22;22676;51.120;3.702;2023-10-19T12:19:57;23.80;53.90
36690;DHT22;22676;51.120;3.702;2023-10-19T12:22:23;23.80;53.90
36690;DHT22;22676;51.120;3.702;2023-10-19T12:24:49;23.80;53.80
36690;DHT22;22676;51.120;3.702;2023-10-19T12:27:17;23.80;53.80
36690;DHT22;22676;51.120;3.702;2023-10-19T12:29:43;23.80;53.80
36690;DHT22;22676;51.120;3.702;2023-10-19T12:32:09;23.90;53.90
36690;DHT22;22676;51.120;3.702;2023-10-19T12:34:35;23.80;53.80
36690;DHT22;22676;51.120;3.702;2023-10-19T12:37:01;23.90;53.80
36690;DHT22;22676;51.120;3.702;2023-10-19T12:39:29;23.80;53.80
36690;DHT22;22676;51.120;3.702;2023-10-19T12:42:01;23.80;53.80
36690;DHT22;22676;51.120;3.702;2023-10-19T12:44:27;23.90;53.80
36690;DHT22;22676;51.120;3.702;2023-10-19T12:46:55;23.90;53.80
36690;DHT22;22676;51.120;3.702;2023-10-19T12:49:23;23.90;53.80
36690;DHT22;22676;51.120;3.702;2023-10-19T12:51:52;23.90;53.80
36690;DHT22;22676;51.120;3.702;2023-10-19T12:54:18;23.90;53.80
36690;DHT22;22676;51.120;3.702;2023-10-19T12:56:43;23.80;53.80
36690;DHT22;22676;51.120;3.702;2023-10-19T12:59:09;23.80;54.30
36690;DHT22;22676;51.120;3.702;2023-10-19T13:01:35;23.80;54.50
36690;DHT22;22676;51.120;3.702;2023-10-19T13:04:01;23.80;54.30
36690;DHT22;22676;51.120;3.702;2023-10-19T13:06:39;23.80;54.00
36690;DHT22;22676;51.120;3.702;2023-10-19T13:09:05;23.80;54.00
36690;DHT22;22676;51.120;3.702;2023-10-19T13:11:34;23.80;54.00
36690;DHT22;22676;51.120;3.702;2023-10-19T13:14:00;23.80;54.00
36690;DHT22;22676;51.120;3.702;2023-10-19T13:16:31;23.80;53.90
36690;DHT22;22676;51.120;3.702;2023-10-19T13:18:57;23.80;53.90
36690;DHT22;22676;51.120;3.702;2023-10-19T13:21:23;23.90;53.90
36690;DHT22;22676;51.120;3.702;2023-10-19T13:23:57;23.90;54.00
36690;DHT22;22676;51.120;3.702;2023-10-19T13:26:23;23.90;53.90
36690;DHT22;22676;51.120;3.702;2023-10-19T13:28:49;23.90;53.90
36690;DHT22;22676;51.120;3.702;2023-10-19T13:31:18;23.90;54.00
36690;DHT22;22676;51.120;3.702;2023-10-19T13:33:44;23.90;53.90
36690;DHT22;22676;51.120;3.702;2023-10-19T13:36:11;23.90;53.90
36690;DHT22;22676;51.120;3.702;2023-10-19T13:38:38;23.90;53.90
36690;DHT22;22676;51.120;3.702;2023-10-19T13:41:07;23.90;53.80
36690;DHT22;22676;51.120;3.702;2023-10-19T13:43:35;24.00;53.80
36690;DHT22;22676;51.120;3.702;2023-10-19T13:46:01;23.90;53.80
36690;DHT22;22676;51.120;3.702;2023-10-19T13:48:27;24.00;53.80
36690;DHT22;22676;51.120;3.702;2023-10-19T13:50:53;24.00;53.90
36690;DHT22;22676;51.120;3.702;2023-10-19T13:53:26;24.00;53.90
36690;DHT22;22676;51.120;3.702;2023-10-19T13:55:52;24.00;53.80
36690;DHT22;22676;51.120;3.702;2023-10-19T13:58:18;23.90;53.90
36690;DHT22;22676;51.120;3.702;2023-10-19T14:00:43;24.00;54.10
36690;DHT22;22676;51.120;3.702;2023-10-19T14:03:11;23.90;54.20
36690;DHT22;22676;51.120;3.702;2023-10-19T14:05:44;23.90;54.00
36690;DHT22;22676;51.120;3.702;2023-10-19T14:08:13;23.90;53.90
36690;DHT22;22676;51.120;3.702;2023-10-19T14:10:39;24.00;54.00
36690;DHT22;22676;51.120;3.702;2023-10-19T14:13:07;23.90;54.00
36690;DHT22;22676;51.120;3.702;2023-10-19T14:15:33;23.90;53.90
36690;DHT22;22676;51.120;3.702;2023-10-19T14:18:00;23.90;53.90
36690;DHT22;22676;51.120;3.702;2023-10-19T14:20:29;23.90;53.90
36690;DHT22;22676;51.120;3.702;2023-10-19T14:22:55;24.00;54.10
36690;DHT22;22676;51.120;3.702;2023-10-19T14:25:21;24.00;54.00
36690;DHT22;22676;51.120;3.702;2023-10-19T14:27:50;24.00;54.20
36690;DHT22;22676;51.120;3.702;2023-10-19T14:30:23;24.00;54.00
36690;DHT22;22676;51.120;3.702;2023-10-19T14:32:49;24.00;53.90
36690;DHT22;22676;51.120;3.702;2023-10-19T14:35:16;24.00;53.90
36690;DHT22;22676;51.120;3.702;2023-10-19T14:37:45;24.00;53.80
36690;DHT22;22676;51.120;3.702;2023-10-19T14:40:13;24.00;53.80
36690;DHT22;22676;51.120;3.702;2023-10-19T14:42:43;24.00;53.80
36690;DHT22;22676;51.120;3.702;2023-10-19T14:45:17;24.00;53.90
36690;DHT22;22676;51.120;3.702;2023-10-19T14:47:50;24.10;54.10
36690;DHT22;22676;51.120;3.702;2023-10-19T14:50:20;24.00;54.00
36690;DHT22;22676;51.120;3.702;2023-10-19T14:52:48;24.10;54.00
36690;DHT22;22676;51.120;3.702;2023-10-19T14:55:15;24.10;53.90
36690;DHT22;22676;51.120;3.702;2023-10-19T14:57:42;24.10;54.20
36690;DHT22;22676;51.120;3.702;2023-10-19T15:00:10;24.10;54.70
36690;DHT22;22676;51.120;3.702;2023-10-19T15:02:55;24.00;54.20
36690;DHT22;22676;51.120;3.702;2023-10-19T15:05:27;24.00;54.00
36690;DHT22;22676;51.120;3.702;2023-10-19T15:07:53;24.10;54.10
36690;DHT22;22676;51.120;3.702;2023-10-19T15:10:26;24.00;54.10
36690;DHT22;22676;51.120;3.702;2023-10-19T15:12:54;24.00;54.20
36690;DHT22;22676;51.120;3.702;2023-10-19T15:15:22;24.10;54.30
36690;DHT22;22676;51.120;3.702;2023-10-19T15:17:48;24.10;54.30
36690;DHT22;22676;51.120;3.702;2023-10-19T15:20:16;24.10;54.30
36690;DHT22;22676;51.120;3.702;2023-10-19T15:22:43;24.10;54.20
36690;DHT22;22676;51.120;3.702;2023-10-19T15:25:09;24.10;54.10
36690;DHT22;22676;51.120;3.702;2023-10-19T15:27:40;24.10;54.10
36690;DHT22;22676;51.120;3.702;2023-10-19T15:30:07;24.10;54.00
36690;DHT22;22676;51.120;3.702;2023-10-19T15:32:44;24.10;54.00
36690;DHT22;22676;51.120;3.702;2023-10-19T15:35:11;24.20;54.10
36690;DHT22;22676;51.120;3.702;2023-10-19T15:37:38;24.20;53.80
36690;DHT22;22676;51.120;3.702;2023-10-19T15:40:04;24.20;53.80
36690;DHT22;22676;51.120;3.702;2023-10-19T15:42:30;24.20;53.80
36690;DHT22;22676;51.120;3.702;2023-10-19T15:44:56;24.20;53.80
36690;DHT22;22676;51.120;3.702;2023-10-19T15:47:22;24.20;54.00
36690;DHT22;22676;51.120;3.702;2023-10-19T15:49:53;24.20;54.00
36690;DHT22;22676;51.120;3.702;2023-10-19T15:52:23;24.10;54.20